sensor_id;sensor_type;location;lat;lon;timestamp;P1;durP1;ratioP1;P2;durP2;ratioP2
18100;SDS011;9177;49.156;8.142;2024-03-07T00:00:36;14.73;;;13.33;;
18100;SDS011;9177;49.156;8.142;2024-03-07T00:03:04;14.60;;;13.20;;
18100;SDS011;9177;49.156;8.142;2024-03-07T00:05:31;15.00;;;13.50;;
18100;SDS011;9177;49.156;8.142;2024-03-07T00:07:58;15.87;;;13.80;;
18100;SDS011;9177;49.156;8.142;2024-03-07T00:10:25;15.27;;;13.87;;
18100;SDS011;9177;49.156;8.142;2024-03-07T00:12:52;15.03;;;13.67;;
18100;SDS011;9177;49.156;8.142;2024-03-07T00:15:19;14.90;;;13.40;;
18100;SDS011;9177;49.156;8.142;2024-03-07T00:17:46;14.90;;;13.53;;
18100;SDS011;9177;49.156;8.142;2024-03-07T00:20:15;14.70;;;13.30;;
18100;SDS011;9177;49.156;8.142;2024-03-07T00:22:44;14.37;;;13.07;;
18100;SDS011;9177;49.156;8.142;2024-03-07T00:25:11;15.23;;;13.73;;
18100;SDS011;9177;49.156;8.142;2024-03-07T00:27:39;14.37;;;12.97;;
18100;SDS011;9177;49.156;8.142;2024-03-07T00:30:07;14.83;;;13.33;;
18100;SDS011;9177;49.156;8.142;2024-03-07T00:32:35;13.53;;;12.30;;
18100;SDS011;9177;49.156;8.142;2024-03-07T00:35:04;15.13;;;13.73;;
18100;SDS011;9177;49.156;8.142;2024-03-07T00:37:35;14.20;;;12.87;;
18100;SDS011;9177;49.156;8.142;2024-03-07T00:40:02;14.70;;;13.27;;
18100;SDS011;9177;49.156;8.142;2024-03-07T00:42:29;14.77;;;13.20;;
18100;SDS011;9177;49.156;8.142;2024-03-07T00:44:56;13.80;;;12.53;;
18100;SDS011;9177;49.156;8.142;2024-03-07T00:47:23;15.13;;;13.67;;
18100;SDS011;9177;49.156;8.142;2024-03-07T00:49:53;14.90;;;13.60;;
18100;SDS011;9177;49.156;8.142;2024-03-07T00:52:19;14.33;;;12.93;;
18100;SDS011;9177;49.156;8.142;2024-03-07T00:54:48;13.83;;;12.53;;
18100;SDS011;9177;49.156;8.142;2024-03-07T00:57:15;14.77;;;13.17;;
18100;SDS011;9177;49.156;8.142;2024-03-07T00:59:42;14.83;;;13.43;;
18100;SDS011;9177;49.156;8.142;2024-03-07T01:02:09;15.00;;;13.57;;
18100;SDS011;9177;49.156;8.142;2024-03-07T01:04:36;14.13;;;12.73;;
18100;SDS011;9177;49.156;8.142;2024-03-07T01:07:03;15.30;;;13.77;;
18100;SDS011;9177;49.156;8.142;2024-03-07T01:09:30;14.70;;;13.30;;
18100;SDS011;9177;49.156;8.142;2024-03-07T01:11:58;14.70;;;13.20;;
18100;SDS011;9177;49.156;8.142;2024-03-07T01:14:25;15.07;;;13.67;;
18100;SDS011;9177;49.156;8.142;2024-03-07T01:16:52;15.37;;;13.87;;
18100;SDS011;9177;49.156;8.142;2024-03-07T01:19:19;15.07;;;13.67;;
18100;SDS011;9177;49.156;8.142;2024-03-07T01:21:45;15.80;;;14.20;;
18100;SDS011;9177;49.156;8.142;2024-03-07T01:24:12;14.07;;;12.77;;
18100;SDS011;9177;49.156;8.142;2024-03-07T01:26:42;14.87;;;13.50;;
18100;SDS011;9177;49.156;8.142;2024-03-07T01:29:11;14.77;;;13.37;;
18100;SDS011;9177;49.156;8.142;2024-03-07T01:31:39;14.20;;;12.83;;
18100;SDS011;9177;49.156;8.142;2024-03-07T01:34:06;14.47;;;12.97;;
18100;SDS011;9177;49.156;8.142;2024-03-07T01:36:33;14.10;;;12.80;;
18100;SDS011;9177;49.156;8.142;2024-03-07T01:39:00;14.93;;;13.50;;
18100;SDS011;9177;49.156;8.142;2024-03-07T01:41:28;14.57;;;13.17;;
18100;SDS011;9177;49.156;8.142;2024-03-07T01:43:55;14.40;;;13.07;;
18100;SDS011;9177;49.156;8.142;2024-03-07T01:46:23;14.50;;;13.10;;
18100;SDS011;9177;49.156;8.142;2024-03-07T01:48:50;13.77;;;12.37;;
18100;SDS011;9177;49.156;8.142;2024-03-07T01:51:18;14.70;;;13.30;;
18100;SDS011;9177;49.156;8.142;2024-03-07T01:53:46;14.53;;;13.03;;
18100;SDS011;9177;49.156;8.142;2024-03-07T01:56:13;13.30;;;12.07;;
18100;SDS011;9177;49.156;8.142;2024-03-07T01:58:40;14.47;;;13.07;;
18100;SDS011;9177;49.156;8.142;2024-03-07T02:01:08;14.00;;;12.70;;
18100;SDS011;9177;49.156;8.142;2024-03-07T02:03:36;14.17;;;12.87;;
18100;SDS011;9177;49.156;8.142;2024-03-07T02:06:04;14.13;;;12.93;;
18100;SDS011;9177;49.156;8.142;2024-03-07T02:08:31;14.47;;;13.07;;
18100;SDS011;9177;49.156;8.142;2024-03-07T02:10:58;13.73;;;12.43;;
18100;SDS011;9177;49.156;8.142;2024-03-07T02:13:24;14.17;;;12.77;;
18100;SDS011;9177;49.156;8.142;2024-03-07T02:15:51;14.07;;;12.77;;
18100;SDS011;9177;49.156;8.142;2024-03-07T02:18:18;14.07;;;12.77;;
18100;SDS011;9177;49.156;8.142;2024-03-07T02:20:47;13.87;;;12.57;;
18100;SDS011;9177;49.156;8.142;2024-03-07T02:23:14;13.87;;;12.57;;
18100;SDS011;9177;49.156;8.142;2024-03-07T02:25:41;13.87;;;12.47;;
18100;SDS011;9177;49.156;8.142;2024-03-07T02:28:09;13.67;;;12.37;;
18100;SDS011;9177;49.156;8.142;2024-03-07T02:30:36;15.00;;;13.50;;
18100;SDS011;9177;49.156;8.142;2024-03-07T02:33:04;13.80;;;12.50;;
18100;SDS011;9177;49.156;8.142;2024-03-07T02:35:32;14.00;;;12.70;;
18100;SDS011;9177;49.156;8.142;2024-03-07T02:38:02;13.03;;;11.83;;
18100;SDS011;9177;49.156;8.142;2024-03-07T02:40:30;14.40;;;13.07;;
18100;SDS011;9177;49.156;8.142;2024-03-07T02:42:57;14.30;;;12.80;;
18100;SDS011;9177;49.156;8.142;2024-03-07T02:45:24;13.30;;;12.00;;
18100;SDS011;9177;49.156;8.142;2024-03-07T02:47:51;14.00;;;12.70;;
18100;SDS011;9177;49.156;8.142;2024-03-07T02:50:18;14.63;;;13.23;;
18100;SDS011;9177;49.156;8.142;2024-03-07T02:52:47;13.20;;;11.90;;
18100;SDS011;9177;49.156;8.142;2024-03-07T02:55:16;14.13;;;12.67;;
18100;SDS011;9177;49.156;8.142;2024-03-07T02:57:44;14.07;;;12.77;;
18100;SDS011;9177;49.156;8.142;2024-03-07T03:00:11;14.37;;;12.93;;
18100;SDS011;9177;49.156;8.142;2024-03-07T03:02:46;13.67;;;12.47;;
18100;SDS011;9177;49.156;8.142;2024-03-07T03:05:13;13.33;;;12.13;;
18100;SDS011;9177;49.156;8.142;2024-03-07T03:07:41;14.37;;;13.07;;
18100;SDS011;9177;49.156;8.142;2024-03-07T03:10:19;14.07;;;12.77;;
18100;SDS011;9177;49.156;8.142;2024-03-07T03:12:49;13.43;;;12.13;;
18100;SDS011;9177;49.156;8.142;2024-03-07T03:15:18;13.80;;;12.43;;
18100;SDS011;9177;49.156;8.142;2024-03-07T03:17:46;14.17;;;12.77;;
18100;SDS011;9177;49.156;8.142;2024-03-07T03:20:13;13.50;;;12.20;;
18100;SDS011;9177;49.156;8.142;2024-03-07T03:22:49;13.33;;;12.13;;
18100;SDS011;9177;49.156;8.142;2024-03-07T03:25:17;13.03;;;11.70;;
18100;SDS011;9177;49.156;8.142;2024-03-07T03:27:45;13.67;;;12.37;;
18100;SDS011;9177;49.156;8.142;2024-03-07T03:30:12;13.30;;;12.00;;
18100;SDS011;9177;49.156;8.142;2024-03-07T03:32:39;13.07;;;11.97;;
18100;SDS011;9177;49.156;8.142;2024-03-07T03:35:07;13.57;;;12.23;;
18100;SDS011;9177;49.156;8.142;2024-03-07T03:37:38;13.67;;;12.40;;
18100;SDS011;9177;49.156;8.142;2024-03-07T03:40:07;13.27;;;12.07;;
18100;SDS011;9177;49.156;8.142;2024-03-07T03:42:35;13.23;;;11.93;;
18100;SDS011;9177;49.156;8.142;2024-03-07T03:45:04;13.93;;;12.67;;
18100;SDS011;9177;49.156;8.142;2024-03-07T03:47:34;12.87;;;11.70;;
18100;SDS011;9177;49.156;8.142;2024-03-07T03:50:02;14.53;;;13.07;;
18100;SDS011;9177;49.156;8.142;2024-03-07T03:52:30;13.50;;;12.20;;
18100;SDS011;9177;49.156;8.142;2024-03-07T03:54:57;12.93;;;11.70;;
18100;SDS011;9177;49.156;8.142;2024-03-07T03:57:24;12.57;;;11.37;;
18100;SDS011;9177;49.156;8.142;2024-03-07T03:59:51;12.97;;;11.77;;
18100;SDS011;9177;49.156;8.142;2024-03-07T04:02:21;12.77;;;11.57;;
18100;SDS011;9177;49.156;8.142;2024-03-07T04:04:48;13.20;;;12.00;;
18100;SDS011;9177;49.156;8.142;2024-03-07T04:07:16;13.27;;;12.07;;
18100;SDS011;9177;49.156;8.142;2024-03-07T04:09:43;12.57;;;11.43;;
18100;SDS011;9177;49.156;8.142;2024-03-07T04:12:11;13.00;;;11.70;;
18100;SDS011;9177;49.156;8.142;2024-03-07T04:14:39;12.67;;;11.47;;
18100;SDS011;9177;49.156;8.142;2024-03-07T04:17:06;13.73;;;12.50;;
18100;SDS011;9177;49.156;8.142;2024-03-07T04:19:35;12.23;;;11.03;;
18100;SDS011;9177;49.156;8.142;2024-03-07T04:22:03;12.60;;;11.30;;
18100;SDS011;9177;49.156;8.142;2024-03-07T04:24:30;12.97;;;11.37;;
18100;SDS011;9177;49.156;8.142;2024-03-07T04:26:58;12.70;;;11.50;;
18100;SDS011;9177;49.156;8.142;2024-03-07T04:29:25;12.87;;;11.67;;
18100;SDS011;9177;49.156;8.142;2024-03-07T04:31:53;13.67;;;12.40;;
18100;SDS011;9177;49.156;8.142;2024-03-07T04:34:19;13.30;;;12.00;;
18100;SDS011;9177;49.156;8.142;2024-03-07T04:36:48;12.70;;;11.50;;
18100;SDS011;9177;49.156;8.142;2024-03-07T04:39:15;12.43;;;11.30;;
18100;SDS011;9177;49.156;8.142;2024-03-07T04:41:51;12.37;;;11.27;;
18100;SDS011;9177;49.156;8.142;2024-03-07T04:44:18;12.33;;;11.17;;
18100;SDS011;9177;49.156;8.142;2024-03-07T04:46:47;12.10;;;11.00;;
18100;SDS011;9177;49.156;8.142;2024-03-07T04:49:20;12.00;;;10.90;;
18100;SDS011;9177;49.156;8.142;2024-03-07T04:51:49;12.20;;;11.10;;
18100;SDS011;9177;49.156;8.142;2024-03-07T04:54:16;11.93;;;10.83;;
18100;SDS011;9177;49.156;8.142;2024-03-07T04:56:43;12.37;;;11.20;;
18100;SDS011;9177;49.156;8.142;2024-03-07T04:59:11;12.17;;;11.07;;
18100;SDS011;9177;49.156;8.142;2024-03-07T05:01:38;12.50;;;11.37;;
18100;SDS011;9177;49.156;8.142;2024-03-07T05:04:05;12.23;;;11.13;;
18100;SDS011;9177;49.156;8.142;2024-03-07T05:06:32;12.63;;;11.50;;
18100;SDS011;9177;49.156;8.142;2024-03-07T05:09:01;12.63;;;11.43;;
18100;SDS011;9177;49.156;8.142;2024-03-07T05:11:28;12.10;;;11.00;;
18100;SDS011;9177;49.156;8.142;2024-03-07T05:13:55;12.33;;;11.13;;
18100;SDS011;9177;49.156;8.142;2024-03-07T05:16:25;12.17;;;11.07;;
18100;SDS011;9177;49.156;8.142;2024-03-07T05:18:52;11.90;;;10.80;;
18100;SDS011;9177;49.156;8.142;2024-03-07T05:21:19;11.83;;;10.73;;
18100;SDS011;9177;49.156;8.142;2024-03-07T05:24:07;12.33;;;11.23;;
18100;SDS011;9177;49.156;8.142;2024-03-07T05:26:34;11.97;;;10.73;;
18100;SDS011;9177;49.156;8.142;2024-03-07T05:29:05;12.50;;;11.30;;
18100;SDS011;9177;49.156;8.142;2024-03-07T05:31:33;11.90;;;10.80;;
18100;SDS011;9177;49.156;8.142;2024-03-07T05:34:00;10.77;;;9.77;;
18100;SDS011;9177;49.156;8.142;2024-03-07T05:36:30;11.57;;;10.47;;
18100;SDS011;9177;49.156;8.142;2024-03-07T05:38:57;11.63;;;10.60;;
18100;SDS011;9177;49.156;8.142;2024-03-07T05:41:25;11.97;;;10.87;;
18100;SDS011;9177;49.156;8.142;2024-03-07T05:43:55;12.13;;;11.03;;
18100;SDS011;9177;49.156;8.142;2024-03-07T05:46:22;12.10;;;11.00;;
18100;SDS011;9177;49.156;8.142;2024-03-07T05:48:49;11.03;;;10.03;;
18100;SDS011;9177;49.156;8.142;2024-03-07T05:51:17;12.57;;;11.47;;
18100;SDS011;9177;49.156;8.142;2024-03-07T05:53:46;12.20;;;11.03;;
18100;SDS011;9177;49.156;8.142;2024-03-07T05:56:13;12.30;;;11.10;;
18100;SDS011;9177;49.156;8.142;2024-03-07T05:58:42;12.50;;;11.33;;
18100;SDS011;9177;49.156;8.142;2024-03-07T06:01:08;14.00;;;12.53;;
18100;SDS011;9177;49.156;8.142;2024-03-07T06:03:35;11.97;;;10.77;;
18100;SDS011;9177;49.156;8.142;2024-03-07T06:06:03;12.27;;;11.07;;
18100;SDS011;9177;49.156;8.142;2024-03-07T06:08:31;12.00;;;10.90;;
18100;SDS011;9177;49.156;8.142;2024-03-07T06:10:58;12.27;;;11.07;;
18100;SDS011;9177;49.156;8.142;2024-03-07T06:13:25;12.57;;;10.87;;
18100;SDS011;9177;49.156;8.142;2024-03-07T06:15:53;12.87;;;11.63;;
18100;SDS011;9177;49.156;8.142;2024-03-07T06:18:20;13.37;;;11.17;;
18100;SDS011;9177;49.156;8.142;2024-03-07T06:20:47;11.90;;;10.80;;
18100;SDS011;9177;49.156;8.142;2024-03-07T06:23:14;11.30;;;10.20;;
18100;SDS011;9177;49.156;8.142;2024-03-07T06:25:41;11.80;;;10.33;;
18100;SDS011;9177;49.156;8.142;2024-03-07T06:28:15;12.27;;;11.10;;
18100;SDS011;9177;49.156;8.142;2024-03-07T06:30:43;12.23;;;11.03;;
18100;SDS011;9177;49.156;8.142;2024-03-07T06:33:13;12.20;;;11.00;;
18100;SDS011;9177;49.156;8.142;2024-03-07T06:35:42;11.23;;;10.23;;
18100;SDS011;9177;49.156;8.142;2024-03-07T06:38:09;12.10;;;10.50;;
18100;SDS011;9177;49.156;8.142;2024-03-07T06:40:37;10.77;;;9.70;;
18100;SDS011;9177;49.156;8.142;2024-03-07T06:43:05;11.47;;;10.37;;
18100;SDS011;9177;49.156;8.142;2024-03-07T06:45:35;12.23;;;11.03;;
18100;SDS011;9177;49.156;8.142;2024-03-07T06:48:02;12.53;;;11.33;;
18100;SDS011;9177;49.156;8.142;2024-03-07T06:50:33;12.27;;;11.07;;
18100;SDS011;9177;49.156;8.142;2024-03-07T06:53:01;12.63;;;11.43;;
18100;SDS011;9177;49.156;8.142;2024-03-07T06:55:28;12.80;;;11.50;;
18100;SDS011;9177;49.156;8.142;2024-03-07T06:57:55;12.57;;;11.10;;
18100;SDS011;9177;49.156;8.142;2024-03-07T07:00:21;12.43;;;11.23;;
18100;SDS011;9177;49.156;8.142;2024-03-07T07:02:48;11.67;;;10.47;;
18100;SDS011;9177;49.156;8.142;2024-03-07T07:05:15;10.97;;;9.80;;
18100;SDS011;9177;49.156;8.142;2024-03-07T07:07:47;10.83;;;9.73;;
18100;SDS011;9177;49.156;8.142;2024-03-07T07:10:14;11.27;;;10.17;;
18100;SDS011;9177;49.156;8.142;2024-03-07T07:12:42;12.50;;;10.83;;
18100;SDS011;9177;49.156;8.142;2024-03-07T07:15:10;11.43;;;10.23;;
18100;SDS011;9177;49.156;8.142;2024-03-07T07:17:37;12.47;;;11.27;;
18100;SDS011;9177;49.156;8.142;2024-03-07T07:20:05;11.53;;;10.53;;
18100;SDS011;9177;49.156;8.142;2024-03-07T07:22:35;11.00;;;10.00;;
18100;SDS011;9177;49.156;8.142;2024-03-07T07:25:05;11.57;;;10.20;;
18100;SDS011;9177;49.156;8.142;2024-03-07T07:27:38;10.40;;;9.40;;
18100;SDS011;9177;49.156;8.142;2024-03-07T07:30:07;10.20;;;9.30;;
18100;SDS011;9177;49.156;8.142;2024-03-07T07:32:35;10.43;;;9.40;;
18100;SDS011;9177;49.156;8.142;2024-03-07T07:35:02;10.20;;;9.20;;
18100;SDS011;9177;49.156;8.142;2024-03-07T07:37:30;10.37;;;9.47;;
18100;SDS011;9177;49.156;8.142;2024-03-07T07:39:57;10.17;;;9.27;;
18100;SDS011;9177;49.156;8.142;2024-03-07T07:42:26;11.43;;;9.30;;
18100;SDS011;9177;49.156;8.142;2024-03-07T07:44:53;10.50;;;9.50;;
18100;SDS011;9177;49.156;8.142;2024-03-07T07:47:20;10.80;;;9.80;;
18100;SDS011;9177;49.156;8.142;2024-03-07T07:49:47;10.40;;;9.43;;
18100;SDS011;9177;49.156;8.142;2024-03-07T07:52:14;10.47;;;9.43;;
18100;SDS011;9177;49.156;8.142;2024-03-07T07:54:42;10.47;;;9.47;;
18100;SDS011;9177;49.156;8.142;2024-03-07T07:57:09;12.47;;;10.10;;
18100;SDS011;9177;49.156;8.142;2024-03-07T07:59:37;10.23;;;9.20;;
18100;SDS011;9177;49.156;8.142;2024-03-07T08:02:05;10.20;;;9.27;;
18100;SDS011;9177;49.156;8.142;2024-03-07T08:04:32;10.27;;;9.23;;
18100;SDS011;9177;49.156;8.142;2024-03-07T08:06:59;10.00;;;9.00;;
18100;SDS011;9177;49.156;8.142;2024-03-07T08:09:26;9.87;;;8.97;;
18100;SDS011;9177;49.156;8.142;2024-03-07T08:11:53;9.80;;;8.80;;
18100;SDS011;9177;49.156;8.142;2024-03-07T08:14:20;10.30;;;9.30;;
18100;SDS011;9177;49.156;8.142;2024-03-07T08:16:49;10.17;;;9.07;;
18100;SDS011;9177;49.156;8.142;2024-03-07T08:19:16;9.77;;;8.87;;
18100;SDS011;9177;49.156;8.142;2024-03-07T08:21:43;12.13;;;10.07;;
18100;SDS011;9177;49.156;8.142;2024-03-07T08:24:10;9.60;;;8.63;;
18100;SDS011;9177;49.156;8.142;2024-03-07T08:26:37;10.10;;;9.10;;
18100;SDS011;9177;49.156;8.142;2024-03-07T08:29:09;9.97;;;8.77;;
18100;SDS011;9177;49.156;8.142;2024-03-07T08:31:36;10.03;;;9.03;;
18100;SDS011;9177;49.156;8.142;2024-03-07T08:34:05;11.07;;;9.30;;
18100;SDS011;9177;49.156;8.142;2024-03-07T08:36:32;9.90;;;8.90;;
18100;SDS011;9177;49.156;8.142;2024-03-07T08:39:00;10.27;;;9.17;;
18100;SDS011;9177;49.156;8.142;2024-03-07T08:41:28;12.00;;;9.27;;
18100;SDS011;9177;49.156;8.142;2024-03-07T08:43:56;10.43;;;9.23;;
18100;SDS011;9177;49.156;8.142;2024-03-07T08:46:23;9.13;;;8.33;;
18100;SDS011;9177;49.156;8.142;2024-03-07T08:48:50;9.70;;;8.47;;
18100;SDS011;9177;49.156;8.142;2024-03-07T08:51:18;9.73;;;8.73;;
18100;SDS011;9177;49.156;8.142;2024-03-07T08:53:45;10.17;;;8.43;;
18100;SDS011;9177;49.156;8.142;2024-03-07T08:56:12;9.23;;;8.20;;
18100;SDS011;9177;49.156;8.142;2024-03-07T08:58:39;9.13;;;8.13;;
18100;SDS011;9177;49.156;8.142;2024-03-07T09:01:06;10.37;;;9.17;;
18100;SDS011;9177;49.156;8.142;2024-03-07T09:03:33;9.53;;;8.53;;
18100;SDS011;9177;49.156;8.142;2024-03-07T09:06:02;8.77;;;7.87;;
18100;SDS011;9177;49.156;8.142;2024-03-07T09:08:30;10.17;;;8.30;;
18100;SDS011;9177;49.156;8.142;2024-03-07T09:10:58;9.37;;;8.50;;
18100;SDS011;9177;49.156;8.142;2024-03-07T09:13:24;9.70;;;8.70;;
18100;SDS011;9177;49.156;8.142;2024-03-07T09:15:52;9.30;;;8.27;;
18100;SDS011;9177;49.156;8.142;2024-03-07T09:18:19;9.70;;;7.53;;
18100;SDS011;9177;49.156;8.142;2024-03-07T09:20:47;9.63;;;8.57;;
18100;SDS011;9177;49.156;8.142;2024-03-07T09:23:14;10.10;;;8.07;;
18100;SDS011;9177;49.156;8.142;2024-03-07T09:25:42;9.83;;;8.40;;
18100;SDS011;9177;49.156;8.142;2024-03-07T09:28:10;8.90;;;8.00;;
18100;SDS011;9177;49.156;8.142;2024-03-07T09:30:37;8.70;;;7.90;;
18100;SDS011;9177;49.156;8.142;2024-03-07T09:33:05;8.77;;;7.97;;
18100;SDS011;9177;49.156;8.142;2024-03-07T09:35:35;8.30;;;7.50;;
18100;SDS011;9177;49.156;8.142;2024-03-07T09:38:03;8.20;;;7.50;;
18100;SDS011;9177;49.156;8.142;2024-03-07T09:40:31;8.80;;;8.00;;
18100;SDS011;9177;49.156;8.142;2024-03-07T09:43:00;8.40;;;7.70;;
18100;SDS011;9177;49.156;8.142;2024-03-07T09:45:28;8.50;;;7.70;;
18100;SDS011;9177;49.156;8.142;2024-03-07T09:47:56;9.17;;;7.50;;
18100;SDS011;9177;49.156;8.142;2024-03-07T09:50:23;7.93;;;7.13;;
18100;SDS011;9177;49.156;8.142;2024-03-07T09:52:55;8.80;;;7.90;;
18100;SDS011;9177;49.156;8.142;2024-03-07T09:55:25;7.93;;;7.23;;
18100;SDS011;9177;49.156;8.142;2024-03-07T09:57:52;8.00;;;7.20;;
18100;SDS011;9177;49.156;8.142;2024-03-07T10:00:22;7.77;;;7.03;;
18100;SDS011;9177;49.156;8.142;2024-03-07T10:02:53;8.07;;;7.37;;
18100;SDS011;9177;49.156;8.142;2024-03-07T10:05:23;7.60;;;6.90;;
18100;SDS011;9177;49.156;8.142;2024-03-07T10:07:54;8.73;;;7.70;;
18100;SDS011;9177;49.156;8.142;2024-03-07T10:10:21;7.23;;;6.63;;
18100;SDS011;9177;49.156;8.142;2024-03-07T10:12:49;7.90;;;7.13;;
18100;SDS011;9177;49.156;8.142;2024-03-07T10:15:18;10.40;;;7.37;;
18100;SDS011;9177;49.156;8.142;2024-03-07T10:17:48;8.20;;;7.27;;
18100;SDS011;9177;49.156;8.142;2024-03-07T10:20:17;8.23;;;7.40;;
18100;SDS011;9177;49.156;8.142;2024-03-07T10:22:47;7.73;;;6.93;;
18100;SDS011;9177;49.156;8.142;2024-03-07T10:25:16;9.50;;;6.90;;
18100;SDS011;9177;49.156;8.142;2024-03-07T10:27:45;7.57;;;6.93;;
18100;SDS011;9177;49.156;8.142;2024-03-07T10:30:14;7.63;;;6.93;;
18100;SDS011;9177;49.156;8.142;2024-03-07T10:32:45;7.87;;;7.10;;
18100;SDS011;9177;49.156;8.142;2024-03-07T10:35:20;8.23;;;6.77;;
18100;SDS011;9177;49.156;8.142;2024-03-07T10:37:49;8.77;;;7.13;;
18100;SDS011;9177;49.156;8.142;2024-03-07T10:40:16;8.20;;;6.97;;
18100;SDS011;9177;49.156;8.142;2024-03-07T10:42:44;9.43;;;6.73;;
18100;SDS011;9177;49.156;8.142;2024-03-07T10:45:17;7.40;;;6.70;;
18100;SDS011;9177;49.156;8.142;2024-03-07T10:47:48;10.37;;;7.07;;
18100;SDS011;9177;49.156;8.142;2024-03-07T10:50:24;7.87;;;7.07;;
18100;SDS011;9177;49.156;8.142;2024-03-07T10:53:03;7.30;;;6.60;;
18100;SDS011;9177;49.156;8.142;2024-03-07T10:55:37;7.63;;;6.93;;
18100;SDS011;9177;49.156;8.142;2024-03-07T10:58:14;7.80;;;7.00;;
18100;SDS011;9177;49.156;8.142;2024-03-07T11:00:59;7.43;;;6.43;;
18100;SDS011;9177;49.156;8.142;2024-03-07T11:03:30;6.93;;;6.33;;
18100;SDS011;9177;49.156;8.142;2024-03-07T11:05:59;7.13;;;6.50;;
18100;SDS011;9177;49.156;8.142;2024-03-07T11:08:31;7.10;;;6.40;;
18100;SDS011;9177;49.156;8.142;2024-03-07T11:11:01;7.33;;;6.67;;
18100;SDS011;9177;49.156;8.142;2024-03-07T11:13:28;6.93;;;6.33;;
18100;SDS011;9177;49.156;8.142;2024-03-07T11:15:56;7.07;;;6.43;;
18100;SDS011;9177;49.156;8.142;2024-03-07T11:18:27;7.00;;;6.33;;
18100;SDS011;9177;49.156;8.142;2024-03-07T11:20:55;7.77;;;6.97;;
18100;SDS011;9177;49.156;8.142;2024-03-07T11:23:26;7.13;;;6.43;;
18100;SDS011;9177;49.156;8.142;2024-03-07T11:25:55;6.97;;;6.27;;
18100;SDS011;9177;49.156;8.142;2024-03-07T11:28:32;6.83;;;6.23;;
18100;SDS011;9177;49.156;8.142;2024-03-07T11:31:14;7.00;;;6.17;;
18100;SDS011;9177;49.156;8.142;2024-03-07T11:36:45;7.77;;;6.20;;
18100;SDS011;9177;49.156;8.142;2024-03-07T11:42:07;7.27;;;6.43;;
18100;SDS011;9177;49.156;8.142;2024-03-07T11:44:34;6.93;;;6.23;;
18100;SDS011;9177;49.156;8.142;2024-03-07T11:47:05;6.90;;;6.17;;
18100;SDS011;9177;49.156;8.142;2024-03-07T11:49:34;7.03;;;6.43;;
18100;SDS011;9177;49.156;8.142;2024-03-07T11:52:03;8.60;;;6.43;;
18100;SDS011;9177;49.156;8.142;2024-03-07T11:54:37;6.63;;;5.93;;
18100;SDS011;9177;49.156;8.142;2024-03-07T11:57:06;6.73;;;6.13;;
18100;SDS011;9177;49.156;8.142;2024-03-07T11:59:38;7.47;;;6.37;;
18100;SDS011;9177;49.156;8.142;2024-03-07T12:02:10;8.77;;;6.67;;
18100;SDS011;9177;49.156;8.142;2024-03-07T12:04:39;8.47;;;6.37;;
18100;SDS011;9177;49.156;8.142;2024-03-07T12:07:07;7.03;;;6.33;;
18100;SDS011;9177;49.156;8.142;2024-03-07T12:09:36;8.07;;;6.20;;
18100;SDS011;9177;49.156;8.142;2024-03-07T12:12:05;6.90;;;6.07;;
18100;SDS011;9177;49.156;8.142;2024-03-07T12:14:32;11.10;;;6.50;;
18100;SDS011;9177;49.156;8.142;2024-03-07T12:17:00;8.17;;;6.73;;
18100;SDS011;9177;49.156;8.142;2024-03-07T12:19:29;8.70;;;6.17;;
18100;SDS011;9177;49.156;8.142;2024-03-07T12:21:59;7.43;;;5.77;;
18100;SDS011;9177;49.156;8.142;2024-03-07T12:24:29;7.10;;;6.00;;
18100;SDS011;9177;49.156;8.142;2024-03-07T12:27:06;7.33;;;5.93;;
18100;SDS011;9177;49.156;8.142;2024-03-07T12:29:35;7.73;;;6.37;;
18100;SDS011;9177;49.156;8.142;2024-03-07T12:32:04;7.07;;;6.37;;
18100;SDS011;9177;49.156;8.142;2024-03-07T12:34:33;6.93;;;6.23;;
18100;SDS011;9177;49.156;8.142;2024-03-07T12:37:03;9.47;;;6.27;;
18100;SDS011;9177;49.156;8.142;2024-03-07T12:39:33;6.80;;;6.20;;
18100;SDS011;9177;49.156;8.142;2024-03-07T12:42:04;6.93;;;6.27;;
18100;SDS011;9177;49.156;8.142;2024-03-07T12:44:50;6.70;;;5.80;;
18100;SDS011;9177;49.156;8.142;2024-03-07T12:47:17;6.40;;;5.90;;
18100;SDS011;9177;49.156;8.142;2024-03-07T12:49:44;6.60;;;6.00;;
18100;SDS011;9177;49.156;8.142;2024-03-07T12:52:12;6.30;;;5.70;;
18100;SDS011;9177;49.156;8.142;2024-03-07T12:54:41;6.20;;;5.60;;
18100;SDS011;9177;49.156;8.142;2024-03-07T12:57:08;6.73;;;6.13;;
18100;SDS011;9177;49.156;8.142;2024-03-07T12:59:37;5.63;;;5.13;;
18100;SDS011;9177;49.156;8.142;2024-03-07T13:02:05;6.33;;;5.57;;
18100;SDS011;9177;49.156;8.142;2024-03-07T13:04:32;6.10;;;5.50;;
18100;SDS011;9177;49.156;8.142;2024-03-07T13:06:59;6.20;;;5.70;;
18100;SDS011;9177;49.156;8.142;2024-03-07T13:09:29;5.87;;;5.27;;
18100;SDS011;9177;49.156;8.142;2024-03-07T13:11:57;5.40;;;4.90;;
18100;SDS011;9177;49.156;8.142;2024-03-07T13:14:29;6.20;;;5.43;;
18100;SDS011;9177;49.156;8.142;2024-03-07T13:16:58;5.90;;;5.30;;
18100;SDS011;9177;49.156;8.142;2024-03-07T13:19:25;6.00;;;5.40;;
18100;SDS011;9177;49.156;8.142;2024-03-07T13:21:52;6.63;;;6.00;;
18100;SDS011;9177;49.156;8.142;2024-03-07T13:24:20;6.80;;;5.30;;
18100;SDS011;9177;49.156;8.142;2024-03-07T13:26:47;8.23;;;6.10;;
18100;SDS011;9177;49.156;8.142;2024-03-07T13:29:16;6.30;;;5.70;;
18100;SDS011;9177;49.156;8.142;2024-03-07T13:31:49;7.80;;;5.80;;
18100;SDS011;9177;49.156;8.142;2024-03-07T13:34:17;5.40;;;4.90;;
18100;SDS011;9177;49.156;8.142;2024-03-07T13:36:45;6.13;;;5.53;;
18100;SDS011;9177;49.156;8.142;2024-03-07T13:39:12;6.07;;;5.57;;
18100;SDS011;9177;49.156;8.142;2024-03-07T13:41:39;6.40;;;5.60;;
18100;SDS011;9177;49.156;8.142;2024-03-07T13:44:07;6.70;;;6.10;;
18100;SDS011;9177;49.156;8.142;2024-03-07T13:46:36;6.00;;;5.03;;
18100;SDS011;9177;49.156;8.142;2024-03-07T13:49:03;6.10;;;5.60;;
18100;SDS011;9177;49.156;8.142;2024-03-07T13:51:37;5.87;;;5.27;;
18100;SDS011;9177;49.156;8.142;2024-03-07T13:54:14;5.97;;;5.40;;
18100;SDS011;9177;49.156;8.142;2024-03-07T13:57:11;6.93;;;6.33;;
18100;SDS011;9177;49.156;8.142;2024-03-07T14:00:05;6.73;;;5.80;;
18100;SDS011;9177;49.156;8.142;2024-03-07T14:02:59;7.03;;;5.83;;
18100;SDS011;9177;49.156;8.142;2024-03-07T14:06:02;6.97;;;6.27;;
18100;SDS011;9177;49.156;8.142;2024-03-07T14:08:39;6.23;;;5.50;;
18100;SDS011;9177;49.156;8.142;2024-03-07T14:23:41;6.67;;;5.93;;
18100;SDS011;9177;49.156;8.142;2024-03-07T14:29:38;13.57;;;9.20;;
18100;SDS011;9177;49.156;8.142;2024-03-07T14:32:10;7.30;;;6.53;;
18100;SDS011;9177;49.156;8.142;2024-03-07T14:34:56;6.43;;;5.83;;
18100;SDS011;9177;49.156;8.142;2024-03-07T14:37:45;7.27;;;6.53;;
18100;SDS011;9177;49.156;8.142;2024-03-07T14:40:15;6.77;;;6.17;;
18100;SDS011;9177;49.156;8.142;2024-03-07T14:42:43;7.00;;;6.00;;
18100;SDS011;9177;49.156;8.142;2024-03-07T14:45:12;7.80;;;6.37;;
18100;SDS011;9177;49.156;8.142;2024-03-07T14:47:44;6.77;;;5.90;;
18100;SDS011;9177;49.156;8.142;2024-03-07T14:50:14;6.77;;;5.63;;
18100;SDS011;9177;49.156;8.142;2024-03-07T14:52:41;8.57;;;6.43;;
18100;SDS011;9177;49.156;8.142;2024-03-07T14:55:10;10.13;;;6.33;;
18100;SDS011;9177;49.156;8.142;2024-03-07T14:57:41;8.80;;;6.87;;
18100;SDS011;9177;49.156;8.142;2024-03-07T15:00:10;8.13;;;6.40;;
18100;SDS011;9177;49.156;8.142;2024-03-07T15:02:44;7.87;;;7.07;;
18100;SDS011;9177;49.156;8.142;2024-03-07T15:05:12;7.83;;;7.03;;
18100;SDS011;9177;49.156;8.142;2024-03-07T15:07:45;7.67;;;6.90;;
18100;SDS011;9177;49.156;8.142;2024-03-07T15:10:14;8.10;;;6.20;;
18100;SDS011;9177;49.156;8.142;2024-03-07T15:12:45;7.13;;;6.37;;
18100;SDS011;9177;49.156;8.142;2024-03-07T15:15:13;7.53;;;6.00;;
18100;SDS011;9177;49.156;8.142;2024-03-07T15:17:40;6.53;;;5.93;;